Time;durP1;ratioP1;P1;durP2;ratioP2;P2;SDS_P1;SDS_P2;PMS_P1;PMS_P2;Temp;Humidity;BMP_temperature;BMP_pressure;BME280_temperature;BME280_humidity;BME280_pressure;Samples;Min_cycle;Max_cycle;Signal;HPM_P1;HPM_P2
2022/09/12 00:01:10;;;;;;;4.38;1.17;;;;;;;26.58;51.78;98686.88;2093502;28;20059;-48
2022/09/12 00:02:11;;;;;;;1.08;0.98;;;;;;;26.57;52.05;98689.81;2086791;28;20247;-49
2022/09/12 00:03:13;;;;;;;3.63;1.25;;;;;;;26.59;52.11;98690.41;2088373;28;20052;-50
2022/09/12 00:04:15;;;;;;;2.30;0.80;;;;;;;26.58;52.13;98691.47;2092902;27;20048;-52
2022/09/12 00:05:16;;;;;;;5.78;1.25;;;;;;;26.58;52.18;98686.00;2095869;28;20044;-51
2022/09/12 00:06:19;;;;;;;6.45;1.38;;;;;;;26.58;51.97;98695.03;2094571;28;20040;-51
2022/09/12 00:07:20;;;;;;;2.55;0.90;;;;;;;26.59;52.30;98696.66;2094376;28;20052;-51
2022/09/12 00:08:21;;;;;;;2.47;1.00;;;;;;;26.59;51.79;98693.13;2093684;28;20234;-48
2022/09/12 00:09:22;;;;;;;3.58;1.33;;;;;;;26.59;52.25;98693.13;2094651;28;20045;-51
2022/09/12 00:10:24;;;;;;;3.72;1.27;;;;;;;26.58;52.42;98692.31;2094239;28;20106;-49
2022/09/12 00:11:26;;;;;;;2.47;1.10;;;;;;;26.59;52.14;98684.97;2094712;28;20632;-51
2022/09/12 00:12:28;;;;;;;2.65;1.33;;;;;;;26.58;52.37;98683.28;2093943;28;20090;-49
2022/09/12 00:13:30;;;;;;;2.95;0.90;;;;;;;26.60;51.74;98683.88;2094034;28;20513;-49
2022/09/12 00:14:32;;;;;;;2.92;1.27;;;;;;;26.58;52.21;98689.59;2094224;28;20135;-49
2022/09/12 00:15:37;;;;;;;5.28;0.93;;;;;;;26.55;51.92;98689.25;2093986;28;20595;-49
2022/09/12 00:16:39;;;;;;;2.22;1.00;;;;;;;26.55;51.93;98691.97;2095203;28;20411;-51
2022/09/12 00:17:40;;;;;;;3.17;0.82;;;;;;;26.57;52.05;98698.00;2095233;28;20060;-50
2022/09/12 00:18:43;;;;;;;1.73;1.00;;;;;;;26.56;51.79;98690.91;2095525;28;20044;-52
2022/09/12 00:19:44;;;;;;;2.60;1.00;;;;;;;26.55;51.82;98689.25;2092873;28;20098;-50
2022/09/12 00:20:47;;;;;;;3.17;1.10;;;;;;;26.54;51.92;98693.06;2094653;28;20052;-52
2022/09/12 00:21:48;;;;;;;4.68;1.38;;;;;;;26.54;51.81;98693.06;2093532;28;20040;-51
2022/09/12 00:22:49;;;;;;;2.65;1.20;;;;;;;26.51;52.10;98691.66;2094989;28;20049;-50
2022/09/12 00:23:50;;;;;;;2.25;1.00;;;;;;;26.52;51.89;98699.59;2094558;28;20093;-48
2022/09/12 00:24:52;;;;;;;2.65;1.02;;;;;;;26.53;52.27;98689.53;2091856;28;20047;-54
2022/09/12 00:25:53;;;;;;;2.80;1.00;;;;;;;26.52;52.33;98702.31;2093611;28;20052;-50
2022/09/12 00:26:54;;;;;;;3.17;1.00;;;;;;;26.52;52.05;98702.31;2093568;28;20052;-49
2022/09/12 00:27:55;;;;;;;3.17;1.08;;;;;;;26.52;52.36;98698.75;2092865;28;21009;-49
2022/09/12 00:28:59;;;;;;;3.83;1.30;;;;;;;26.56;52.18;98699.06;2095102;28;20089;-51
2022/09/12 00:29:59;;;;;;;4.93;1.15;;;;;;;26.54;52.12;98698.50;2091211;28;20048;-51
2022/09/12 00:31:04;;;;;;;3.83;0.90;;;;;;;26.55;51.82;98702.84;2091787;28;20751;-51
2022/09/12 00:32:05;;;;;;;2.00;0.93;;;;;;;26.52;52.32;98699.59;2082080;28;20450;-50
2022/09/12 00:33:07;;;;;;;3.72;1.50;;;;;;;26.52;51.92;98699.59;2092871;28;20098;-49
2022/09/12 00:34:09;;;;;;;3.10;1.23;;;;;;;26.55;52.01;98697.41;2093013;28;20051;-58
2022/09/12 00:35:10;;;;;;;3.75;1.38;;;;;;;26.55;52.23;98691.97;2093054;28;20127;-50
2022/09/12 00:36:14;;;;;;;3.42;1.20;;;;;;;26.55;52.08;98702.84;2091779;28;20264;-48
2022/09/12 00:37:15;;;;;;;4.20;0.95;;;;;;;26.54;51.74;98691.16;2094196;28;20079;-50
2022/09/12 00:38:17;;;;;;;2.75;0.93;;;;;;;26.53;52.18;98692.25;2091249;28;20147;-50
2022/09/12 00:39:18;;;;;;;5.05;2.17;;;;;;;26.54;51.94;98698.50;2092619;28;20052;-49
2022/09/12 00:40:20;;;;;;;3.80;1.13;;;;;;;26.56;51.94;98696.34;2091907;28;20068;-52
2022/09/12 00:41:23;;;;;;;2.38;1.25;;;;;;;26.56;51.83;98697.16;2094318;28;20048;-49
2022/09/12 00:42:25;;;;;;;2.25;1.00;;;;;;;26.55;51.68;98700.13;2092447;28;20684;-50
2022/09/12 00:43:36;;;;;;;4.25;1.45;;;;;;;26.52;52.19;98701.47;2093818;28;20517;-51
2022/09/12 00:44:51;;;;;;;3.60;0.77;;;;;;;26.47;52.05;98696.78;2091952;28;21413;-49
2022/09/12 00:45:53;;;;;;;5.57;1.30;;;;;;;26.47;52.20;98704.09;2090953;28;21132;-49
2022/09/12 00:46:58;;;;;;;6.57;1.45;;;;;;;26.46;51.84;98697.81;2092264;28;20048;-50
2022/09/12 00:48:02;;;;;;;2.97;0.90;;;;;;;26.49;52.13;98702.78;2093016;28;20074;-53
2022/09/12 00:49:07;;;;;;;4.75;0.90;;;;;;;26.50;51.69;98701.72;2091082;28;20117;-52
2022/09/12 00:50:12;;;;;;;2.30;1.05;;;;;;;26.51;51.76;98697.91;2092295;28;20074;-51
2022/09/12 00:51:15;;;;;;;3.78;1.05;;;;;;;26.49;52.03;98697.34;2095188;28;20135;-50
2022/09/12 00:52:21;;;;;;;4.03;0.82;;;;;;;26.52;51.82;98696.00;2094936;28;20058;-49
2022/09/12 00:53:22;;;;;;;2.05;0.90;;;;;;;26.50;52.22;98688.13;2095119;28;20121;-51
2022/09/12 00:54:29;;;;;;;2.08;0.82;;;;;;;26.54;51.93;98693.88;2095179;28;20504;-48
2022/09/12 00:55:35;;;;;;;4.53;1.10;;;;;;;26.55;51.63;98697.41;2094101;28;20040;-50
2022/09/12 00:56:39;;;;;;;2.85;1.42;;;;;;;26.54;52.03;98690.34;2094185;28;20102;-51
2022/09/12 00:57:45;;;;;;;3.55;1.10;;;;;;;26.54;52.12;98696.59;2092762;28;20327;-51
2022/09/12 00:58:50;;;;;;;2.67;1.08;;;;;;;26.55;51.64;98694.69;2093478;28;20087;-51
2022/09/12 00:59:56;;;;;;;4.53;1.65;;;;;;;26.52;52.14;98685.97;2093697;28;20040;-51
2022/09/12 01:00:58;;;;;;;3.95;0.98;;;;;;;26.54;52.00;98687.63;2088896;28;20114;-53
2022/09/12 01:01:59;;;;;;;2.30;0.70;;;;;;;26.54;51.67;98693.88;2094713;28;20101;-50
2022/09/12 01:03:04;;;;;;;4.80;2.65;;;;;;;26.55;51.86;98681.94;2091628;28;20052;-53
2022/09/12 01:04:07;;;;;;;1.90;0.70;;;;;;;26.54;51.93;98682.19;2092267;28;20047;-52
2022/09/12 01:05:09;;;;;;;2.45;0.88;;;;;;;26.54;51.92;98680.28;2089347;28;20060;-57
2022/09/12 01:06:16;;;;;;;4.47;0.90;;;;;;;26.54;51.92;98676.72;2092585;28;20048;-49
2022/09/12 01:07:18;;;;;;;2.67;0.82;;;;;;;26.56;52.08;98685.47;2092227;28;20048;-49
2022/09/12 01:08:21;;;;;;;4.47;1.17;;;;;;;26.54;52.03;98682.19;2092562;28;20048;-50
2022/09/12 01:09:23;;;;;;;2.45;0.65;;;;;;;26.54;51.96;98682.19;2092557;28;20115;-51
2022/09/12 01:10:24;;;;;;;6.15;1.38;;;;;;;26.54;52.08;98682.19;2094889;28;20055;-51
2022/09/12 01:11:25;;;;;;;3.85;1.33;;;;;;;26.54;52.03;98683.00;2093759;28;20205;-50
2022/09/12 01:12:27;;;;;;;3.65;1.48;;;;;;;26.54;51.60;98684.91;2092313;28;21050;-50
2022/09/12 01:13:28;;;;;;;2.85;1.10;;;;;;;26.54;52.03;98676.72;2094247;28;20052;-51
2022/09/12 01:14:31;;;;;;;3.35;0.98;;;;;;;26.52;51.66;98680.53;2095322;28;20618;-49
2022/09/12 01:15:35;;;;;;;5.00;1.40;;;;;;;26.54;51.77;98677.56;2091032;28;20197;-48
2022/09/12 01:16:38;;;;;;;4.25;0.98;;;;;;;26.53;52.05;98670.47;2092504;28;20152;-50
2022/09/12 01:17:50;;;;;;;4.28;1.75;;;;;;;26.53;51.80;98670.47;2085928;28;20060;-51
2022/09/12 01:19:08;;;;;;;4.43;1.50;;;;;;;26.49;51.81;98674.75;2092888;28;20044;-51
2022/09/12 01:20:51;;;;;;;6.32;0.93;;;;;;;26.48;52.17;98662.22;2093093;28;20052;-50
2022/09/12 01:22:06;;;;;;;4.40;1.27;;;;;;;26.46;51.78;98675.25;2045600;28;25100;-50
2022/09/12 01:23:49;;;;;;;1.63;0.80;;;;;;;26.45;52.04;98673.63;2088720;28;20052;-51
2022/09/12 01:25:04;;;;;;;2.30;1.20;;;;;;;26.45;52.27;98668.19;2094679;28;20113;-50
2022/09/12 01:26:26;;;;;;;4.40;1.00;;;;;;;26.43;51.71;98665.69;2092614;28;20057;-54
2022/09/12 01:27:46;;;;;;;7.40;1.02;;;;;;;26.44;52.27;98675.53;2093523;28;20144;-51
2022/09/12 01:29:10;;;;;;;4.47;1.17;;;;;;;26.42;51.90;98676.84;2093605;28;20051;-49
2022/09/12 01:30:24;;;;;;;4.15;1.63;;;;;;;26.44;51.78;98672.81;2092482;28;20059;-52
2022/09/12 01:31:31;;;;;;;3.80;0.80;;;;;;;26.45;52.14;98669.00;2091518;28;21480;-52
2022/09/12 01:32:43;;;;;;;1.80;1.25;;;;;;;26.46;51.65;98669.81;2093070;28;20036;-53
2022/09/12 01:34:00;;;;;;;2.72;0.88;;;;;;;26.43;51.84;98665.69;2093281;28;20048;-50
2022/09/12 01:35:09;;;;;;;2.10;0.82;;;;;;;26.46;52.07;98667.09;2092700;28;20700;-50
2022/09/12 01:36:29;;;;;;;2.40;0.80;;;;;;;26.45;51.72;98670.91;2093619;28;20048;-51
2022/09/12 01:37:38;;;;;;;2.00;0.93;;;;;;;26.44;51.89;98659.19;2089925;28;20567;-50
2022/09/12 01:38:45;;;;;;;3.70;1.00;;;;;;;26.45;51.79;98660.84;2084586;28;20052;-51
2022/09/12 01:39:53;;;;;;;2.65;0.80;;;;;;;26.46;52.02;98661.66;2093365;28;20093;-50
2022/09/12 01:41:03;;;;;;;4.10;1.10;;;;;;;26.46;51.99;98654.31;2092829;28;20040;-48
2022/09/12 01:42:13;;;;;;;1.77;0.63;;;;;;;26.45;51.77;98655.41;2094522;28;20530;-51
2022/09/12 01:43:25;;;;;;;1.60;0.60;;;;;;;26.47;52.15;98655.16;2092130;28;20575;-51
2022/09/12 01:44:37;;;;;;;2.70;0.82;;;;;;;26.46;52.13;98656.22;2094032;28;20103;-52
2022/09/12 01:45:45;;;;;;;3.58;0.80;;;;;;;26.48;51.64;98662.22;2095225;28;20045;-48
2022/09/12 01:46:53;;;;;;;1.42;0.60;;;;;;;26.47;51.83;98661.41;2088999;28;20177;-50
2022/09/12 01:48:02;;;;;;;4.22;1.25;;;;;;;26.46;51.68;98646.16;2089946;28;20071;-50
2022/09/12 01:49:13;;;;;;;2.25;1.35;;;;;;;26.46;51.99;98659.75;2093361;28;21073;-52
2022/09/12 01:50:20;;;;;;;3.13;0.90;;;;;;;26.44;51.79;98653.75;2088693;28;20143;-53
2022/09/12 01:51:25;;;;;;;3.33;0.90;;;;;;;26.48;51.83;98656.78;2089820;28;20136;-50
2022/09/12 01:52:31;;;;;;;2.53;0.90;;;;;;;26.47;51.95;98649.72;2090650;28;20526;-54
2022/09/12 01:53:37;;;;;;;3.17;1.10;;;;;;;26.45;51.65;98652.69;2093041;28;20131;-55
2022/09/12 01:54:41;;;;;;;3.50;1.10;;;;;;;26.48;51.58;98659.50;2093773;28;20062;-52
2022/09/12 01:55:48;;;;;;;2.42;1.15;;;;;;;26.49;51.96;98653.81;2092782;28;20661;-56
2022/09/12 01:56:56;;;;;;;3.60;0.95;;;;;;;26.48;51.90;98646.72;2091087;28;20578;-53
2022/09/12 01:58:07;;;;;;;1.33;0.60;;;;;;;26.45;51.99;98647.25;2093913;28;20056;-53
2022/09/12 01:59:15;;;;;;;6.47;0.93;;;;;;;26.47;52.11;98655.16;2093141;28;20052;-51
2022/09/12 02:00:16;;;;;;;4.35;1.30;;;;;;;26.46;51.63;98646.16;2092598;28;20550;-49
2022/09/12 02:01:23;;;;;;;4.70;1.02;;;;;;;26.47;52.20;98649.72;2091929;28;20051;-58
2022/09/12 02:02:30;;;;;;;1.90;1.23;;;;;;;26.47;51.78;98649.72;2094069;28;20850;-49
2022/09/12 02:03:37;;;;;;;1.92;0.70;;;;;;;26.46;52.14;98654.31;2092962;28;20048;-51
2022/09/12 02:04:43;;;;;;;4.50;0.80;;;;;;;26.46;51.78;98648.06;2095110;28;20044;-53
2022/09/12 02:05:51;;;;;;;3.30;1.38;;;;;;;26.46;52.01;98645.34;2094372;28;20041;-51
2022/09/12 02:06:57;;;;;;;2.67;0.80;;;;;;;26.45;51.86;98647.25;2093735;28;20044;-55
2022/09/12 02:08:05;;;;;;;3.03;0.93;;;;;;;26.46;52.00;98635.28;2092699;28;20068;-52
2022/09/12 02:09:11;;;;;;;1.23;0.75;;;;;;;26.46;52.07;98642.63;2092532;28;20047;-51
2022/09/12 02:10:16;;;;;;;3.17;0.63;;;;;;;26.46;51.84;98640.72;2092343;28;20041;-48
2022/09/12 02:11:18;;;;;;;1.45;0.57;;;;;;;26.43;51.75;98641.22;2092819;28;20629;-53
2022/09/12 02:12:26;;;;;;;3.42;0.80;;;;;;;26.44;51.68;98640.16;2093679;28;20062;-53
2022/09/12 02:13:33;;;;;;;1.92;0.70;;;;;;;26.43;51.93;98626.81;2092019;28;20044;-51
2022/09/12 02:14:40;;;;;;;6.22;1.05;;;;;;;26.44;51.87;98637.44;2092190;28;20050;-54
2022/09/12 02:15:46;;;;;;;2.05;0.70;;;;;;;26.44;51.81;98634.72;2090017;28;20086;-53
2022/09/12 02:16:53;;;;;;;2.60;1.02;;;;;;;26.44;51.68;98633.88;2090892;28;20051;-55
2022/09/12 02:17:57;;;;;;;2.53;0.70;;;;;;;26.44;52.13;98634.72;2093416;28;20052;-55
2022/09/12 02:19:07;;;;;;;3.10;1.00;;;;;;;26.46;51.91;98631.72;2092620;28;20045;-51
2022/09/12 02:20:14;;;;;;;4.15;0.82;;;;;;;26.43;51.97;98633.06;2094163;28;20101;-51
2022/09/12 02:21:18;;;;;;;3.03;1.15;;;;;;;26.44;51.66;98629.28;2091283;28;20147;-52
2022/09/12 02:22:23;;;;;;;2.92;1.13;;;;;;;26.45;52.08;98630.91;2093924;28;20052;-53
2022/09/12 02:23:27;;;;;;;2.40;0.98;;;;;;;26.47;51.60;98634.22;2093274;28;20053;-50
2022/09/12 02:24:33;;;;;;;2.80;0.93;;;;;;;26.43;51.83;98633.06;2094093;28;20062;-50
2022/09/12 02:25:38;;;;;;;2.90;0.93;;;;;;;26.46;52.14;98637.19;2093391;28;20110;-54
2022/09/12 02:26:47;;;;;;;3.92;0.95;;;;;;;26.45;51.91;98635.53;2091598;28;20048;-55
2022/09/12 02:27:52;;;;;;;5.72;1.58;;;;;;;26.42;51.63;98631.44;2088162;28;20040;-51
2022/09/12 02:28:54;;;;;;;1.30;1.02;;;;;;;26.43;52.03;98630.34;2091898;28;20056;-49
2022/09/12 02:29:55;;;;;;;2.42;0.82;;;;;;;26.45;51.26;98635.53;2090502;28;20077;-54
2022/09/12 02:31:04;;;;;;;1.85;1.10;;;;;;;26.45;51.47;98635.53;2093083;28;20109;-51
2022/09/12 02:32:15;;;;;;;2.30;0.85;;;;;;;26.39;51.70;98628.41;2095787;28;21008;-54
2022/09/12 02:33:25;;;;;;;1.10;0.55;;;;;;;26.41;51.37;98628.94;2095383;28;20045;-50
2022/09/12 02:34:33;;;;;;;1.80;0.60;;;;;;;26.39;51.41;98626.50;2092432;28;20060;-54
2022/09/12 02:35:43;;;;;;;2.75;0.80;;;;;;;26.41;51.91;98632.53;2093599;28;20074;-53
2022/09/12 02:36:50;;;;;;;2.45;0.85;;;;;;;26.41;51.49;98627.09;2092091;28;20041;-54
2022/09/12 02:38:00;;;;;;;1.85;0.45;;;;;;;26.42;51.29;98626.00;2091027;28;20131;-54
2022/09/12 02:39:01;;;;;;;3.17;0.60;;;;;;;26.40;51.48;98630.84;2088339;28;20109;-54
2022/09/12 02:40:05;;;;;;;1.20;0.95;;;;;;;26.43;51.27;98633.06;2092917;28;20040;-48
2022/09/12 02:41:06;;;;;;;3.92;1.50;;;;;;;26.43;51.44;98626.81;2092877;28;20055;-53
2022/09/12 02:42:08;;;;;;;2.90;1.00;;;;;;;26.43;51.93;98624.91;2092749;28;20048;-56
2022/09/12 02:43:09;;;;;;;5.63;1.27;;;;;;;26.43;51.82;98619.47;2093030;28;20048;-51
2022/09/12 02:44:10;;;;;;;2.67;0.93;;;;;;;26.43;51.31;98622.19;2093585;28;20072;-54
2022/09/12 02:45:12;;;;;;;1.65;0.90;;;;;;;26.43;51.60;98622.19;2091738;28;20124;-53
2022/09/12 02:46:17;;;;;;;2.80;1.10;;;;;;;26.45;51.81;98619.22;2094461;28;20048;-49
2022/09/12 02:47:27;;;;;;;3.13;0.88;;;;;;;26.43;51.75;98627.63;2092968;28;20093;-53
2022/09/12 02:48:34;;;;;;;1.23;0.77;;;;;;;26.41;51.51;98627.09;2093151;28;20055;-51
2022/09/12 02:49:35;;;;;;;3.47;0.70;;;;;;;26.39;51.66;98622.97;2093122;28;20040;-48
2022/09/12 02:50:37;;;;;;;1.85;0.30;;;;;;;26.40;51.80;98617.25;2090309;28;20133;-50
2022/09/12 02:51:39;;;;;;;4.25;0.68;;;;;;;26.38;51.79;98619.41;2088886;28;20089;-54
2022/09/12 02:52:42;;;;;;;1.48;0.70;;;;;;;26.41;51.83;98618.91;2094286;28;20088;-48
2022/09/12 02:53:43;;;;;;;3.70;1.23;;;;;;;26.44;51.71;98620.28;2094658;28;20052;-52
2022/09/12 02:54:45;;;;;;;2.25;0.93;;;;;;;26.42;51.86;98622.47;2095403;28;20048;-52
2022/09/12 02:55:46;;;;;;;3.05;1.02;;;;;;;26.43;51.88;98615.94;2096178;28;20112;-54
2022/09/12 02:56:47;;;;;;;4.28;0.95;;;;;;;26.42;51.98;98615.13;2094273;28;20523;-55
2022/09/12 02:57:48;;;;;;;1.92;0.77;;;;;;;26.40;51.52;98616.44;2086658;28;20071;-56
2022/09/12 02:58:50;;;;;;;2.60;0.80;;;;;;;26.40;51.61;98611.00;2086099;28;22849;-53
2022/09/12 02:59:55;;;;;;;3.47;0.90;;;;;;;26.43;51.70;98621.38;2092694;28;20591;-53
2022/09/12 03:01:08;;;;;;;3.30;1.00;;;;;;;26.40;51.81;98616.44;2094492;28;20074;-51
2022/09/12 03:02:24;;;;;;;6.63;1.08;;;;;;;26.39;51.99;98620.25;2093600;28;20056;-55
2022/09/12 03:03:38;;;;;;;4.70;1.30;;;;;;;26.39;51.82;98621.06;2092969;28;20073;-54
2022/09/12 03:05:18;;;;;;;2.00;0.80;;;;;;;26.29;51.66;98610.88;2089053;28;20143;-53
2022/09/12 03:06:30;;;;;;;2.95;0.70;;;;;;;26.31;51.88;98618.81;2085154;28;20062;-54
2022/09/12 03:07:49;;;;;;;1.85;1.20;;;;;;;26.33;51.97;98619.38;2093905;28;20044;-53
2022/09/12 03:09:05;;;;;;;3.30;1.10;;;;;;;26.33;52.01;98610.38;2095015;28;20167;-50
2022/09/12 03:10:16;;;;;;;3.40;0.70;;;;;;;26.35;51.71;98608.22;2082979;28;26732;-53
2022/09/12 03:11:29;;;;;;;1.90;0.90;;;;;;;26.35;51.52;98616.38;2092990;28;20089;-50
2022/09/12 03:12:42;;;;;;;3.40;1.15;;;;;;;26.34;52.08;98606.59;2094392;28;20518;-53
2022/09/12 03:13:52;;;;;;;2.25;0.55;;;;;;;26.36;51.88;98612.59;2093831;28;20094;-50
2022/09/12 03:15:09;;;;;;;1.73;0.70;;;;;;;26.32;51.84;98609.56;2093288;28;20074;-54
2022/09/12 03:16:17;;;;;;;3.75;1.02;;;;;;;26.35;51.67;98609.03;2092702;28;20044;-52
2022/09/12 03:17:30;;;;;;;2.40;1.00;;;;;;;26.35;52.09;98608.22;2094492;28;20055;-54
2022/09/12 03:18:46;;;;;;;3.65;0.80;;;;;;;26.35;51.54;98617.19;2092343;28;20056;-54
2022/09/12 03:19:55;;;;;;;1.48;0.70;;;;;;;26.34;52.03;98609.31;2087841;28;20081;-57
2022/09/12 03:21:06;;;;;;;1.58;0.77;;;;;;;26.34;51.41;98607.41;2094236;28;20469;-53
2022/09/12 03:22:14;;;;;;;1.90;0.77;;;;;;;26.33;52.02;98611.22;2095261;28;20465;-49
2022/09/12 03:23:25;;;;;;;3.15;0.63;;;;;;;26.35;51.42;98614.47;2091651;28;20131;-49
2022/09/12 03:24:31;;;;;;;3.38;0.93;;;;;;;26.35;51.47;98609.03;2093023;28;20113;-56
2022/09/12 03:25:38;;;;;;;1.23;0.60;;;;;;;26.36;51.98;98613.44;2095711;28;20044;-51
2022/09/12 03:26:43;;;;;;;4.18;0.93;;;;;;;26.35;51.49;98611.75;2093504;28;20049;-52
2022/09/12 03:27:51;;;;;;;2.20;0.57;;;;;;;26.38;51.94;98618.59;2093702;28;20048;-56
2022/09/12 03:28:54;;;;;;;1.65;0.70;;;;;;;26.36;51.54;98615.31;2092950;28;20048;-54
2022/09/12 03:29:57;;;;;;;1.33;0.60;;;;;;;26.38;51.79;98613.16;2092562;28;20052;-51
2022/09/12 03:30:58;;;;;;;2.47;0.70;;;;;;;26.37;51.49;98611.53;2094333;28;20048;-50
2022/09/12 03:32:00;;;;;;;1.88;0.90;;;;;;;26.34;51.43;98618.28;2092715;28;20072;-53
2022/09/12 03:33:02;;;;;;;3.70;1.38;;;;;;;26.36;51.37;98616.13;2090645;28;20797;-50
2022/09/12 03:34:04;;;;;;;2.50;1.52;;;;;;;26.37;51.38;98616.97;2089208;28;20078;-51
2022/09/12 03:35:06;;;;;;;2.15;1.33;;;;;;;26.34;51.57;98607.41;2089833;28;20091;-56
2022/09/12 03:36:14;;;;;;;1.60;0.50;;;;;;;26.36;51.41;98618.88;2091480;28;20052;-51
2022/09/12 03:37:15;;;;;;;2.63;0.82;;;;;;;26.35;51.78;98619.91;2091926;28;20859;-57
2022/09/12 03:38:17;;;;;;;2.53;0.90;;;;;;;26.35;51.94;98624.53;2092347;28;20052;-52
2022/09/12 03:39:17;;;;;;;3.17;0.77;;;;;;;26.35;51.80;98613.66;2094564;28;20056;-51
2022/09/12 03:40:19;;;;;;;3.13;1.10;;;;;;;26.35;51.78;98619.91;2088594;28;20052;-51
2022/09/12 03:41:20;;;;;;;1.75;0.90;;;;;;;26.38;51.70;98621.31;2095473;28;20086;-55
2022/09/12 03:42:22;;;;;;;2.95;0.70;;;;;;;26.36;51.53;98618.88;2096231;28;20044;-55
2022/09/12 03:43:23;;;;;;;2.72;0.75;;;;;;;26.36;51.79;98621.56;2091979;28;20096;-54
2022/09/12 03:44:26;;;;;;;1.27;0.52;;;;;;;26.36;52.06;98621.56;2088664;28;20133;-58
2022/09/12 03:45:26;;;;;;;2.15;0.98;;;;;;;26.38;51.44;98619.41;2092649;28;20052;-56
2022/09/12 03:46:28;;;;;;;3.08;0.63;;;;;;;26.33;51.86;98622.09;2094413;28;20061;-54
2022/09/12 03:47:29;;;;;;;2.38;0.93;;;;;;;26.34;51.35;98612.03;2093550;28;20109;-54
2022/09/12 03:48:32;;;;;;;3.55;0.90;;;;;;;26.36;51.43;98616.13;2092513;28;20067;-51
2022/09/12 03:49:33;;;;;;;1.58;0.85;;;;;;;26.34;51.47;98618.28;2094152;28;20109;-57
2022/09/12 03:50:34;;;;;;;1.55;0.60;;;;;;;26.33;51.38;98624.81;2093390;28;20052;-50
2022/09/12 03:51:35;;;;;;;2.80;1.15;;;;;;;26.35;51.54;98614.47;2093390;28;20128;-54
2022/09/12 03:52:37;;;;;;;0.95;0.85;;;;;;;26.33;51.78;98619.38;2092613;28;20109;-55
2022/09/12 03:53:38;;;;;;;0.73;0.60;;;;;;;26.33;51.53;98613.94;2093514;28;20044;-56
2022/09/12 03:54:40;;;;;;;2.50;0.80;;;;;;;26.35;51.66;98616.38;2093180;28;20837;-50
2022/09/12 03:55:40;;;;;;;2.53;0.70;;;;;;;26.32;51.43;98615.00;2092775;28;20441;-54
2022/09/12 03:56:42;;;;;;;5.25;0.73;;;;;;;26.34;51.94;98618.28;2095356;28;20056;-50
2022/09/12 03:57:43;;;;;;;1.48;0.50;;;;;;;26.34;51.43;98618.28;2092344;28;20544;-54
2022/09/12 03:58:45;;;;;;;2.92;1.10;;;;;;;26.35;51.29;98619.91;2094978;28;20903;-48
2022/09/12 03:59:47;;;;;;;1.30;0.70;;;;;;;26.37;51.77;98625.13;2089819;28;20744;-56
2022/09/12 04:00:49;;;;;;;3.53;1.23;;;;;;;26.35;51.77;98622.63;2087166;28;20602;-51
2022/09/12 04:01:50;;;;;;;3.33;1.00;;;;;;;26.34;51.49;98618.28;2091914;28;20076;-51
2022/09/12 04:02:56;;;;;;;2.05;1.13;;;;;;;26.35;51.25;98624.53;2092234;28;20055;-54
2022/09/12 04:03:58;;;;;;;0.75;0.45;;;;;;;26.32;51.77;98619.63;2090864;28;20128;-52
2022/09/12 04:05:00;;;;;;;1.85;0.73;;;;;;;26.31;51.37;98618.81;2091301;28;20056;-55
2022/09/12 04:06:00;;;;;;;2.45;0.93;;;;;;;26.29;51.54;98618.22;2092434;28;20674;-52
2022/09/12 04:07:02;;;;;;;2.08;1.13;;;;;;;26.29;51.86;98619.03;2094426;28;20128;-52
2022/09/12 04:08:03;;;;;;;1.17;0.60;;;;;;;26.32;51.38;98619.63;2092719;28;21033;-54
2022/09/12 04:09:05;;;;;;;2.72;0.90;;;;;;;26.29;51.91;98616.31;2090201;28;20052;-53
2022/09/12 04:10:06;;;;;;;1.30;0.50;;;;;;;26.32;51.67;98617.72;2091942;28;20551;-54
2022/09/12 04:11:11;;;;;;;1.25;0.50;;;;;;;26.34;51.35;98622.91;2092358;28;20731;-54
2022/09/12 04:12:12;;;;;;;1.13;0.73;;;;;;;26.31;51.35;98618.81;2093156;28;20092;-50
2022/09/12 04:13:14;;;;;;;1.23;0.65;;;;;;;26.28;51.75;98619.31;2090557;28;20126;-55
2022/09/12 04:14:15;;;;;;;2.05;0.68;;;;;;;26.30;51.89;98617.16;2090362;28;20594;-53
2022/09/12 04:15:17;;;;;;;2.05;1.08;;;;;;;26.32;51.51;98615.00;2091414;28;20664;-50
2022/09/12 04:16:18;;;;;;;1.63;0.70;;;;;;;26.30;51.44;98614.44;2093948;28;20143;-53
2022/09/12 04:17:20;;;;;;;1.45;1.00;;;;;;;26.31;51.38;98610.63;2090905;28;20064;-50
2022/09/12 04:18:20;;;;;;;3.30;0.80;;;;;;;26.28;51.44;98613.88;2091849;28;20048;-50
2022/09/12 04:19:24;;;;;;;1.70;0.70;;;;;;;26.31;51.58;98610.63;2091648;28;20056;-51
2022/09/12 04:20:25;;;;;;;3.65;0.73;;;;;;;26.30;51.36;98615.25;2091157;28;20044;-55
2022/09/12 04:21:27;;;;;;;2.42;1.38;;;;;;;26.28;51.38;98608.44;2093247;28;20139;-57
2022/09/12 04:22:28;;;;;;;4.05;0.55;;;;;;;26.32;51.44;98614.19;2096474;28;20064;-51
2022/09/12 04:23:30;;;;;;;1.13;0.80;;;;;;;26.28;51.91;98625.56;2093282;28;20052;-53
2022/09/12 04:24:31;;;;;;;1.75;0.82;;;;;;;26.30;51.53;98619.88;2093414;28;20044;-52
2022/09/12 04:25:32;;;;;;;1.85;0.80;;;;;;;26.29;51.32;98610.88;2093961;28;20102;-52
2022/09/12 04:26:33;;;;;;;1.73;0.80;;;;;;;26.28;51.40;98611.97;2095533;28;20051;-50
2022/09/12 04:27:35;;;;;;;2.03;0.70;;;;;;;26.27;51.91;98617.66;2094637;28;20156;-51
2022/09/12 04:28:37;;;;;;;2.00;1.25;;;;;;;26.28;51.75;98613.88;2079920;28;20126;-49
2022/09/12 04:29:39;;;;;;;2.65;0.80;;;;;;;26.29;51.39;98610.88;2091066;28;20139;-51
2022/09/12 04:30:39;;;;;;;1.02;0.57;;;;;;;26.30;51.39;98617.16;2092973;28;20044;-53
2022/09/12 09:45:37;;;;;;;6.25;1.40;;;;;;;25.88;53.46;98714.72;2059553;28;20054;-54
2022/09/12 09:46:39;;;;;;;2.05;1.13;;;;;;;25.92;53.38;98724.84;2056261;28;20125;-50
2022/09/12 09:47:39;;;;;;;3.70;1.65;;;;;;;25.95;53.28;98713.47;2059024;28;20460;-53
2022/09/12 09:48:46;;;;;;;2.72;1.38;;;;;;;25.97;53.16;98711.34;2057662;28;20054;-54
2022/09/12 09:49:47;;;;;;;2.55;1.10;;;;;;;25.98;53.18;98707.53;2057042;28;20058;-50
2022/09/12 09:50:50;;;;;;;3.10;1.08;;;;;;;26.00;52.90;98713.56;2057926;28;20041;-51
2022/09/12 09:51:50;;;;;;;4.95;1.38;;;;;;;26.01;52.96;98711.66;2062955;28;20039;-53
2022/09/12 09:52:55;;;;;;;3.90;1.13;;;;;;;26.01;52.55;98715.19;2058728;28;20051;-51
2022/09/12 09:54:00;;;;;;;5.43;1.27;;;;;;;26.02;52.56;98707.84;2061292;28;20123;-52
2022/09/12 09:55:03;;;;;;;3.35;1.15;;;;;;;26.02;52.57;98718.72;2063532;28;20146;-52
2022/09/12 09:56:09;;;;;;;2.63;1.05;;;;;;;26.03;52.54;98710.34;2061874;28;20077;-49
2022/09/12 09:57:40;;;;;;;2.35;0.98;;;;;;;26.04;53.04;98713.88;2062278;28;20162;-54
2022/09/12 09:58:41;;;;;;;2.00;0.98;;;;;;;26.03;52.96;98714.94;2065906;28;20050;-50
2022/09/12 09:59:42;;;;;;;1.80;1.38;;;;;;;26.03;52.64;98713.06;2062280;28;20138;-54
2022/09/12 10:00:46;;;;;;;3.58;0.93;;;;;;;26.06;52.68;98719.88;2060129;28;20143;-52
2022/09/12 10:01:50;;;;;;;4.97;1.15;;;;;;;26.07;52.35;98719.63;2059838;28;20050;-55
2022/09/12 10:03:26;;;;;;;3.08;1.40;;;;;;;26.02;52.77;98714.13;2055132;28;20046;-54
2022/09/12 10:04:31;;;;;;;4.00;1.63;;;;;;;26.03;52.88;98721.19;2060529;28;20449;-53
2022/09/12 10:05:34;;;;;;;3.72;0.85;;;;;;;26.04;53.15;98713.88;2059542;28;20054;-47
2022/09/12 10:06:38;;;;;;;7.43;1.08;;;;;;;26.10;52.75;98715.56;2061064;28;20112;-52
2022/09/12 10:07:49;;;;;;;3.55;1.10;;;;;;;26.08;52.43;98713.13;2062643;28;20057;-51
2022/09/12 10:08:50;;;;;;;;;;;;;;;26.00;52.78;98720.88;2062881;28;20088;-50
2022/09/12 10:10:04;;;;;;;3.80;1.35;;;;;;;26.01;52.59;98720.63;2062239;28;20503;-54
2022/09/12 10:11:08;;;;;;;2.40;1.27;;;;;;;26.06;52.67;98714.44;2060295;28;20039;-48
2022/09/12 10:12:24;;;;;;;1.60;0.80;;;;;;;26.05;52.31;98705.47;2060587;28;20042;-51
2022/09/12 10:13:33;;;;;;;5.53;1.92;;;;;;;26.05;52.52;98708.19;2064715;28;20134;-50
2022/09/12 10:14:38;;;;;;;2.97;1.10;;;;;;;26.06;52.71;98707.09;2064186;28;20582;-53
2022/09/12 10:15:54;;;;;;;5.57;1.27;;;;;;;26.05;52.30;98705.47;2059335;28;20053;-48
2022/09/12 10:16:58;;;;;;;3.20;1.27;;;;;;;26.08;52.07;98713.13;2056500;28;20100;-52
2022/09/12 10:17:59;;;;;;;2.03;0.70;;;;;;;26.08;52.11;98707.69;2062276;28;20529;-47
2022/09/12 10:19:02;;;;;;;3.33;1.10;;;;;;;26.09;52.07;98708.50;2060759;28;20085;-54
2022/09/12 10:20:04;;;;;;;4.10;1.38;;;;;;;26.13;52.12;98708.81;2061712;28;20050;-54
2022/09/12 10:21:16;;;;;;;2.20;0.77;;;;;;;26.13;51.88;98706.91;2060564;28;20085;-54
2022/09/12 10:22:19;;;;;;;1.02;0.73;;;;;;;26.15;51.41;98712.13;2061011;28;20100;-50
2022/09/12 10:23:30;;;;;;;2.22;1.20;;;;;;;26.13;51.29;98709.63;2061134;28;20056;-50